Strona główna
METAR-TAF:

METAR-TAF

Lotnisko :

Laupheim, Niemcy

Szerokość geograficzna: 48-13N, Długość geograficzna: 009-55E, wysokość: 538 m

Aktualna obserwacja pogody

Raport powstał 21 minut temu, godzina 19:20 UTC
Wiatr 10 kt od południowy zachód
Temperatura 8°C
Wilgotność 71%
Ciśnienie 1007 hPa
Widzialność 10 km lub więcej
Rozproszone chmury na wysokości 4300 ft
Przerywane chmury na wysokości 10000 ft
słaby deszcz

METAR: ETHL 081920Z 23010KT 9999 -RA SCT043 BKN100 08/03 Q1007 BLU

czas: 20:41 (19:41 UTC)


TAF: brakujący

Obserwacja i prognoza pogody dla ponad 4000 lotnisk (raport METAR i TAF).

Dostępne stacje oznaczono żółtymi i czerwonymi punktami na mapie.

Najedź kursorem aby zobaczyć nazwę stacji.

Kliknij aby zobaczyć obserwacje i prognozy pogody.

Aby zmienić mapę: kliknij na zielony przycisk z czarnym krzyżykiem, aby powiększyć; na zielony przycisk z myślnikiem, aby pomniejszyć; na zielone strzałki, aby przejść do map sąsiednich.


METAR-TAF: